Time;durP1;ratioP1;P1;durP2;ratioP2;P2;SDS_P1;SDS_P2;PMS_P1;PMS_P2;Temp;Humidity;BMP_temperature;BMP_pressure;BME280_temperature;BME280_humidity;BME280_pressure;Samples;Min_cycle;Max_cycle;Signal;HPM_P1;HPM_P2
2022/04/06 00:00:32;;;;;;;2.83;0.90;;;22.70;37.50;;;;;;5025361;28;20482;-50
2022/04/06 00:02:58;;;;;;;2.35;1.10;;;22.70;37.50;;;;;;5023970;28;20048;-50
2022/04/06 00:05:24;;;;;;;2.65;1.20;;;22.70;37.50;;;;;;5024984;28;20481;-50
2022/04/06 00:07:50;;;;;;;3.08;1.00;;;22.70;37.50;;;;;;5025495;28;20065;-51
2022/04/06 00:10:15;;;;;;;2.20;0.68;;;22.60;37.50;;;;;;5025159;28;20025;-50
2022/04/06 00:12:41;;;;;;;2.38;0.82;;;22.70;37.60;;;;;;5025182;28;20037;-50
2022/04/06 00:15:10;;;;;;;3.17;1.08;;;22.60;37.50;;;;;;5023968;28;20056;-50
2022/04/06 00:17:36;;;;;;;2.63;0.80;;;22.60;37.50;;;;;;5025414;28;20029;-50
2022/04/06 00:20:04;;;;;;;1.90;0.90;;;22.60;37.50;;;;;;5023552;28;20036;-50
2022/04/06 00:22:29;;;;;;;2.30;0.77;;;22.70;37.60;;;;;;5024851;28;20405;-50
2022/04/06 00:24:56;;;;;;;1.95;0.70;;;22.60;37.50;;;;;;5025097;28;20025;-50
2022/04/06 00:27:22;;;;;;;2.90;1.00;;;22.60;37.40;;;;;;5025244;28;20041;-49
2022/04/06 00:29:48;;;;;;;2.05;0.77;;;22.60;37.40;;;;;;5025551;28;20026;-50
2022/04/06 00:32:13;;;;;;;2.42;1.00;;;22.60;37.50;;;;;;5024829;28;20064;-50
2022/04/06 00:37:23;;;;;;;1.60;0.73;;;22.60;37.50;;;;;;5024765;28;20056;-51
2022/04/06 00:39:49;;;;;;;2.13;1.10;;;22.60;37.50;;;;;;5025425;28;20065;-50
2022/04/06 00:42:15;;;;;;;2.08;0.80;;;22.60;37.40;;;;;;5024509;28;20028;-50
2022/04/06 00:44:41;;;;;;;2.28;0.90;;;22.60;37.40;;;;;;5024523;28;20029;-50
2022/04/06 00:47:08;;;;;;;2.70;0.95;;;22.60;37.40;;;;;;5024395;28;20045;-51
2022/04/06 00:49:34;;;;;;;2.10;0.70;;;22.60;37.40;;;;;;5024473;28;20107;-51
2022/04/06 00:52:05;;;;;;;2.08;0.80;;;22.60;37.40;;;;;;5024764;28;20162;-49
2022/04/06 00:54:32;;;;;;;1.83;0.70;;;22.50;37.40;;;;;;5024812;28;20021;-51
2022/04/06 00:56:59;;;;;;;1.40;0.60;;;22.60;37.50;;;;;;5025040;28;20533;-51
2022/04/06 00:59:28;;;;;;;1.73;0.68;;;22.50;37.40;;;;;;5024425;28;20657;-49
2022/04/06 01:01:56;;;;;;;2.95;0.98;;;22.50;37.40;;;;;;5024258;28;20120;-50
2022/04/06 01:04:21;;;;;;;2.10;0.52;;;22.50;37.50;;;;;;5024628;28;20040;-51
2022/04/06 01:06:48;;;;;;;1.70;0.70;;;22.50;37.50;;;;;;5024653;28;20041;-51
2022/04/06 01:09:18;;;;;;;1.65;0.75;;;22.50;37.40;;;;;;5024343;28;20397;-50
2022/04/06 01:11:46;;;;;;;1.20;0.55;;;22.50;37.40;;;;;;5024311;28;20052;-51
2022/04/06 01:14:12;;;;;;;2.05;0.57;;;22.50;37.40;;;;;;5024154;28;20022;-50
2022/04/06 01:16:39;;;;;;;1.90;0.77;;;22.50;37.30;;;;;;5024619;28;20033;-50
2022/04/06 01:19:05;;;;;;;1.70;0.70;;;22.50;37.40;;;;;;5024170;28;20142;-50
2022/04/06 01:21:31;;;;;;;1.77;0.60;;;22.50;37.30;;;;;;5023789;28;20033;-50
2022/04/06 01:23:57;;;;;;;1.90;0.77;;;22.50;37.30;;;;;;5024029;28;20635;-50
2022/04/06 01:26:24;;;;;;;1.00;0.40;;;22.50;37.30;;;;;;5022866;28;20029;-51
2022/04/06 01:28:50;;;;;;;1.92;0.70;;;22.50;37.30;;;;;;5023864;28;20464;-50
2022/04/06 01:31:16;;;;;;;1.48;0.50;;;22.40;37.20;;;;;;5023813;28;20022;-50
2022/04/06 01:33:43;;;;;;;1.13;0.40;;;22.50;37.30;;;;;;5024787;28;20379;-50
2022/04/06 01:36:09;;;;;;;1.88;0.82;;;22.50;37.30;;;;;;5023698;28;20025;-51
2022/04/06 01:38:35;;;;;;;2.05;0.57;;;22.50;37.30;;;;;;5024191;28;20037;-50
2022/04/06 01:41:02;;;;;;;1.58;0.60;;;22.40;37.20;;;;;;5023613;28;20026;-50
2022/04/06 01:43:28;;;;;;;3.08;0.80;;;22.40;37.20;;;;;;5023386;28;20111;-51
2022/04/06 01:45:54;;;;;;;1.45;0.40;;;22.40;37.30;;;;;;5023250;28;20701;-50
2022/04/06 01:48:20;;;;;;;1.58;0.45;;;22.40;37.30;;;;;;5024194;28;20080;-50
2022/04/06 01:53:31;;;;;;;1.38;0.50;;;22.40;37.20;;;;;;5023308;28;20345;-51
2022/04/06 01:55:57;;;;;;;2.28;0.88;;;22.40;37.20;;;;;;5023229;28;20148;-49
2022/04/06 01:58:23;;;;;;;1.48;0.55;;;22.40;37.10;;;;;;5023747;28;20029;-50
2022/04/06 02:00:50;;;;;;;1.20;0.40;;;22.40;37.10;;;;;;5027690;28;20472;-50
2022/04/06 02:03:16;;;;;;;0.85;0.45;;;22.40;37.10;;;;;;5027376;28;20127;-50
2022/04/06 02:05:42;;;;;;;1.75;0.75;;;22.40;37.20;;;;;;5027403;28;20530;-50
2022/04/06 02:08:08;;;;;;;1.77;0.50;;;22.40;37.20;;;;;;5027465;28;20057;-49
2022/04/06 02:10:34;;;;;;;1.33;0.60;;;22.40;37.10;;;;;;5027581;28;20035;-50
2022/04/06 02:13:00;;;;;;;1.65;0.40;;;22.40;37.10;;;;;;5027008;28;20026;-49
2022/04/06 02:15:30;;;;;;;1.10;0.50;;;22.40;37.10;;;;;;5027367;28;20025;-50
2022/04/06 02:17:56;;;;;;;0.90;0.40;;;22.40;37.10;;;;;;5027683;28;20030;-50
2022/04/06 02:20:22;;;;;;;2.17;0.50;;;22.40;37.10;;;;;;5025005;28;20037;-49
2022/04/06 02:22:48;;;;;;;1.45;0.57;;;22.30;37.10;;;;;;5025211;28;20033;-49
2022/04/06 02:25:14;;;;;;;0.70;0.40;;;22.30;37.10;;;;;;5026849;28;20092;-49
2022/04/06 02:27:51;;;;;;;0.93;0.52;;;22.30;37.10;;;;;;5027235;28;20040;-50
2022/04/06 02:30:18;;;;;;;1.27;0.38;;;22.30;37.10;;;;;;5026789;28;20029;-51
2022/04/06 02:32:44;;;;;;;0.57;0.20;;;22.30;37.20;;;;;;5026868;28;20108;-50
2022/04/06 02:35:11;;;;;;;1.00;0.40;;;22.30;37.10;;;;;;5024733;28;20049;-49
2022/04/06 02:37:36;;;;;;;0.80;0.43;;;22.30;37.20;;;;;;5025657;28;20465;-50
2022/04/06 02:40:04;;;;;;;1.42;0.40;;;22.30;37.10;;;;;;5025530;28;20029;-50
2022/04/06 02:42:30;;;;;;;1.20;0.40;;;22.30;37.10;;;;;;5026493;28;20029;-49
2022/04/06 02:44:56;;;;;;;0.60;0.30;;;22.30;37.00;;;;;;5026900;28;20492;-49
2022/04/06 02:47:21;;;;;;;1.20;0.40;;;22.30;37.00;;;;;;5026093;28;20067;-50
2022/04/06 02:49:47;;;;;;;1.40;0.50;;;22.30;37.00;;;;;;5026883;28;20040;-49
2022/04/06 02:52:13;;;;;;;0.93;0.35;;;22.30;37.10;;;;;;5026287;28;20029;-50
2022/04/06 02:54:38;;;;;;;1.80;0.65;;;22.30;37.10;;;;;;5026845;28;20025;-50
2022/04/06 02:57:06;;;;;;;1.92;0.45;;;22.30;37.00;;;;;;5026949;28;20030;-51
2022/04/06 02:59:32;;;;;;;1.15;0.47;;;22.20;37.00;;;;;;5026892;28;20092;-50
2022/04/06 03:01:57;;;;;;;0.75;0.40;;;22.20;37.00;;;;;;5026739;28;20485;-51
2022/04/06 03:04:23;;;;;;;1.00;0.30;;;22.20;37.00;;;;;;5026093;28;20033;-49
2022/04/06 03:06:49;;;;;;;3.53;0.93;;;22.20;37.00;;;;;;5027002;28;20032;-50
2022/04/06 03:09:14;;;;;;;0.95;0.30;;;22.20;37.00;;;;;;5026585;28;20030;-50
2022/04/06 03:11:40;;;;;;;1.25;0.70;;;22.20;37.00;;;;;;5025883;28;20082;-50
2022/04/06 03:14:06;;;;;;;0.93;0.40;;;22.20;37.00;;;;;;5026337;28;20026;-51
2022/04/06 03:16:32;;;;;;;0.88;0.25;;;22.20;37.60;;;;;;5026689;28;20079;-50
2022/04/06 03:18:57;;;;;;;0.82;0.32;;;22.20;37.00;;;;;;5025967;28;20033;-50
2022/04/06 03:21:23;;;;;;;0.88;0.38;;;22.20;37.00;;;;;;5025779;28;20091;-50
2022/04/06 03:23:49;;;;;;;1.95;0.40;;;22.20;37.00;;;;;;5025570;28;20104;-50
2022/04/06 03:26:15;;;;;;;1.13;0.20;;;22.20;37.00;;;;;;5026238;28;20543;-50
2022/04/06 03:28:41;;;;;;;0.70;0.38;;;22.20;36.90;;;;;;5023636;28;20112;-50
2022/04/06 03:31:07;;;;;;;1.13;0.35;;;22.20;36.90;;;;;;5025648;28;20473;-50
2022/04/06 03:33:33;;;;;;;1.00;0.40;;;22.20;36.90;;;;;;5026473;28;20029;-50
2022/04/06 03:35:59;;;;;;;0.90;0.30;;;22.20;37.00;;;;;;5025629;28;20036;-50
2022/04/06 03:38:24;;;;;;;0.63;0.28;;;22.20;36.90;;;;;;5026051;28;20052;-50
2022/04/06 03:40:50;;;;;;;0.95;0.30;;;22.20;36.90;;;;;;5026244;28;20075;-50
2022/04/06 03:43:17;;;;;;;0.88;0.30;;;22.20;36.90;;;;;;5024998;28;20022;-50
2022/04/06 03:45:43;;;;;;;0.30;0.17;;;22.20;37.00;;;;;;5026172;28;20044;-51
2022/04/06 03:48:09;;;;;;;1.35;0.50;;;22.20;36.90;;;;;;5024802;28;20037;-50
2022/04/06 03:50:35;;;;;;;0.90;0.32;;;22.20;36.90;;;;;;5025279;28;20056;-50
2022/04/06 03:53:01;;;;;;;1.00;0.40;;;22.20;37.00;;;;;;5024202;28;20477;-51
2022/04/06 03:55:27;;;;;;;1.05;0.40;;;22.20;36.90;;;;;;5024448;28;20030;-50
2022/04/06 03:57:52;;;;;;;0.60;0.30;;;22.10;36.90;;;;;;5025656;28;20034;-51
2022/04/06 04:00:18;;;;;;;0.68;0.30;;;22.10;36.90;;;;;;5025492;28;20501;-49
2022/04/06 04:02:46;;;;;;;0.68;0.25;;;22.10;36.90;;;;;;5025120;28;20832;-50
2022/04/06 04:05:12;;;;;;;0.43;0.15;;;22.10;36.90;;;;;;5023760;28;20045;-51
2022/04/06 04:07:38;;;;;;;0.75;0.30;;;22.10;37.00;;;;;;5024093;28;20048;-51
2022/04/06 04:10:10;;;;;;;0.75;0.32;;;22.10;37.00;;;;;;5025412;28;20758;-51
2022/04/06 04:12:38;;;;;;;0.75;0.20;;;22.10;36.90;;;;;;5025330;28;20026;-51
2022/04/06 04:15:05;;;;;;;1.15;0.40;;;22.10;36.90;;;;;;5025503;28;20029;-51
2022/04/06 04:17:31;;;;;;;0.47;0.22;;;22.10;37.00;;;;;;5025072;28;20041;-51
2022/04/06 04:19:56;;;;;;;0.45;0.20;;;22.10;37.10;;;;;;5025080;28;20262;-50
2022/04/06 04:22:22;;;;;;;0.93;0.40;;;22.10;37.20;;;;;;5024495;28;20061;-51
2022/04/06 04:24:48;;;;;;;1.70;0.20;;;22.10;37.20;;;;;;5024683;28;20025;-51
2022/04/06 04:27:14;;;;;;;0.65;0.20;;;22.10;37.30;;;;;;5025439;28;20029;-50
2022/04/06 04:29:40;;;;;;;0.38;0.22;;;22.10;37.40;;;;;;5024995;28;20032;-50
2022/04/06 04:32:06;;;;;;;0.47;0.20;;;22.20;37.40;;;;;;5024081;28;20040;-50
2022/04/06 04:34:31;;;;;;;0.50;0.30;;;22.20;37.40;;;;;;5025292;28;20040;-50
2022/04/06 04:36:58;;;;;;;0.30;0.20;;;22.30;37.40;;;;;;5024589;28;20033;-50
2022/04/06 04:39:23;;;;;;;0.63;0.30;;;22.40;37.40;;;;;;5022609;28;20049;-50
2022/04/06 04:41:49;;;;;;;0.57;0.28;;;22.40;37.40;;;;;;5024113;28;20033;-50
2022/04/06 04:44:15;;;;;;;0.38;0.17;;;22.40;37.30;;;;;;5024304;28;20241;-50
2022/04/06 04:46:40;;;;;;;0.47;0.17;;;22.50;37.30;;;;;;5024827;28;20485;-49
2022/04/06 04:49:07;;;;;;;0.82;0.28;;;22.50;37.30;;;;;;5023734;28;20033;-50
2022/04/06 04:51:32;;;;;;;0.50;0.20;;;22.60;37.20;;;;;;5024481;28;20040;-49
2022/04/06 04:53:59;;;;;;;0.63;0.20;;;22.60;37.10;;;;;;5023588;28;20029;-50
2022/04/06 04:56:28;;;;;;;0.52;0.22;;;22.70;37.10;;;;;;5024731;28;20308;-51
2022/04/06 04:58:54;;;;;;;1.25;0.20;;;22.80;37.00;;;;;;5024307;28;20057;-50
2022/04/06 05:01:20;;;;;;;0.50;0.25;;;22.80;36.90;;;;;;5023630;28;20072;-50
2022/04/06 05:03:47;;;;;;;0.28;0.10;;;22.80;36.90;;;;;;5023951;28;20048;-51
2022/04/06 05:06:13;;;;;;;0.90;0.40;;;22.90;36.90;;;;;;5022234;28;20029;-52
2022/04/06 05:08:39;;;;;;;0.55;0.22;;;22.90;36.80;;;;;;5023477;28;20042;-50
2022/04/06 05:11:04;;;;;;;0.40;0.25;;;23.00;36.90;;;;;;5023355;28;20030;-50
2022/04/06 05:13:31;;;;;;;0.40;0.20;;;23.00;36.70;;;;;;5021574;28;20021;-49
2022/04/06 05:15:57;;;;;;;0.60;0.20;;;23.00;36.70;;;;;;5023416;28;20029;-50
2022/04/06 05:18:22;;;;;;;1.20;0.40;;;23.00;36.60;;;;;;5022803;28;20501;-49
2022/04/06 05:20:48;;;;;;;0.90;0.30;;;23.10;36.70;;;;;;5021262;28;20076;-49
2022/04/06 05:23:15;;;;;;;0.75;0.30;;;23.10;36.70;;;;;;5021494;28;20195;-48
2022/04/06 05:25:41;;;;;;;0.93;0.30;;;23.10;36.70;;;;;;5023311;28;20034;-49
2022/04/06 05:28:08;;;;;;;0.85;0.40;;;23.10;36.70;;;;;;5022823;28;20025;-49
2022/04/06 05:30:35;;;;;;;1.38;0.30;;;23.20;36.80;;;;;;5021228;28;20093;-49
2022/04/06 05:33:01;;;;;;;1.17;0.50;;;23.20;36.90;;;;;;5023256;28;20052;-49
2022/04/06 05:35:27;;;;;;;1.15;0.50;;;23.20;36.90;;;;;;5026420;28;20049;-50
2022/04/06 05:37:56;;;;;;;2.88;0.50;;;23.20;37.10;;;;;;5025315;28;20025;-50
2022/04/06 05:40:22;;;;;;;2.85;1.25;;;23.30;37.70;;;;;;5025958;28;20025;-50
2022/04/06 05:42:48;;;;;;;3.35;0.65;;;23.30;37.90;;;;;;5023512;28;20500;-45
2022/04/06 05:45:14;;;;;;;3.78;0.70;;;23.30;38.40;;;;;;5014904;28;20036;-46
2022/04/06 05:47:41;;;;;;;2.75;0.40;;;23.30;38.80;;;;;;5013284;28;20552;-46
2022/04/06 05:50:09;;;;;;;5.53;0.93;;;23.30;39.20;;;;;;5019590;28;20083;-50
2022/04/06 05:52:35;;;;;;;2.85;0.55;;;23.40;39.50;;;;;;5026794;28;20478;-51
2022/04/06 05:55:01;;;;;;;5.40;0.88;;;23.40;39.20;;;;;;5023957;28;20032;-48
2022/04/06 05:57:26;;;;;;;2.75;0.40;;;23.40;39.50;;;;;;5021204;28;20022;-47
2022/04/06 05:59:52;;;;;;;3.95;0.65;;;23.40;39.40;;;;;;5025407;28;20168;-47
2022/04/06 06:02:19;;;;;;;3.42;0.50;;;23.40;39.00;;;;;;5009464;28;20076;-47
2022/04/06 06:04:44;;;;;;;2.60;0.65;;;23.50;38.70;;;;;;5024836;28;20112;-46
2022/04/06 06:07:11;;;;;;;3.67;0.60;;;23.50;38.60;;;;;;5022105;28;20108;-47
2022/04/06 06:09:37;;;;;;;1.60;0.40;;;23.50;38.70;;;;;;5017927;28;20112;-47
2022/04/06 06:12:03;;;;;;;3.58;0.63;;;23.50;38.80;;;;;;5014631;28;20097;-49
2022/04/06 06:14:29;;;;;;;1.55;0.35;;;23.50;38.80;;;;;;5019505;28;20092;-47
2022/04/06 06:16:58;;;;;;;2.38;0.40;;;23.50;38.80;;;;;;5014077;28;20038;-48
2022/04/06 06:19:24;;;;;;;3.15;0.73;;;23.50;38.70;;;;;;5025186;28;20498;-49
2022/04/06 06:21:50;;;;;;;1.77;0.70;;;23.60;38.50;;;;;;5025470;28;20061;-48
2022/04/06 06:24:15;;;;;;;2.15;0.60;;;23.60;38.70;;;;;;5025401;28;20057;-48
2022/04/06 06:26:44;;;;;;;1.30;0.50;;;23.60;38.60;;;;;;5022858;28;20429;-48
2022/04/06 06:29:11;;;;;;;2.40;0.52;;;23.60;38.50;;;;;;5024868;28;20667;-47
2022/04/06 06:31:37;;;;;;;4.28;1.40;;;23.60;38.50;;;;;;5025298;28;20092;-47
2022/04/06 06:34:03;;;;;;;7.90;1.70;;;23.60;38.50;;;;;;5025449;28;20033;-48
2022/04/06 06:36:29;;;;;;;5.72;1.70;;;23.70;38.60;;;;;;5023315;28;20113;-48
2022/04/06 06:38:55;;;;;;;8.23;2.47;;;23.70;38.30;;;;;;5025513;28;20109;-49
2022/04/06 06:41:22;;;;;;;11.07;2.25;;;23.70;38.30;;;;;;5023830;28;20025;-50
2022/04/06 06:43:49;;;;;;;8.90;2.28;;;23.70;38.40;;;;;;5024295;28;20093;-48
2022/04/06 06:46:16;;;;;;;8.75;2.42;;;23.70;38.20;;;;;;5024750;28;20439;-50
2022/04/06 06:48:42;;;;;;;7.45;2.30;;;23.70;38.00;;;;;;5025424;28;20592;-50
2022/04/06 06:51:07;;;;;;;6.68;2.58;;;23.70;37.80;;;;;;5023830;28;20060;-50
2022/04/06 06:53:33;;;;;;;9.10;2.00;;;23.70;37.60;;;;;;5025951;28;20021;-52
2022/04/06 06:55:59;;;;;;;6.28;2.50;;;23.70;37.70;;;;;;5024715;28;20029;-51
2022/04/06 06:58:25;;;;;;;9.18;2.42;;;23.80;37.70;;;;;;5023679;28;20025;-50
2022/04/06 07:00:50;;;;;;;8.75;2.38;;;23.80;38.00;;;;;;5020826;28;20052;-49
2022/04/06 07:03:16;;;;;;;5.72;2.28;;;23.80;38.20;;;;;;5025029;28;20116;-49
2022/04/06 07:05:42;;;;;;;8.38;2.25;;;23.80;38.50;;;;;;5023149;28;20057;-50
2022/04/06 07:08:08;;;;;;;9.32;2.63;;;23.80;39.00;;;;;;5024199;28;20181;-50
2022/04/06 07:10:34;;;;;;;8.43;2.53;;;23.80;39.00;;;;;;5025009;28;20021;-48
2022/04/06 07:13:00;;;;;;;8.88;2.15;;;23.80;38.80;;;;;;5024169;28;20025;-48
2022/04/06 07:15:26;;;;;;;9.38;2.53;;;23.80;38.90;;;;;;5024505;28;20055;-48
2022/04/06 07:17:57;;;;;;;5.45;2.05;;;23.80;39.00;;;;;;5024671;28;20021;-49
2022/04/06 07:20:25;;;;;;;8.30;1.73;;;23.80;39.00;;;;;;5022964;28;20109;-47
2022/04/06 07:22:51;;;;;;;8.70;2.20;;;23.80;39.00;;;;;;5024792;28;20205;-48
2022/04/06 07:25:17;;;;;;;7.28;2.33;;;23.80;39.20;;;;;;5024682;28;20036;-48
2022/04/06 07:27:43;;;;;;;8.00;2.10;;;23.80;39.40;;;;;;5025148;28;20506;-53
2022/04/06 07:30:11;;;;;;;8.45;2.53;;;23.80;39.10;;;;;;5025058;28;20030;-51
2022/04/06 07:32:37;;;;;;;7.90;2.42;;;23.80;38.80;;;;;;5024704;28;20021;-53
2022/04/06 07:35:05;;;;;;;11.13;2.85;;;23.80;38.70;;;;;;5024941;28;20060;-47
2022/04/06 07:37:38;;;;;;;9.90;3.20;;;23.80;39.20;;;;;;5024912;28;20037;-48
2022/04/06 07:40:07;;;;;;;11.57;3.67;;;23.80;39.20;;;;;;5020993;28;20033;-48
2022/04/06 07:42:35;;;;;;;11.18;3.33;;;23.80;39.30;;;;;;5013625;28;20041;-49
2022/04/06 07:45:05;;;;;;;14.35;3.35;;;23.80;39.40;;;;;;5010999;28;20511;-48
2022/04/06 07:47:32;;;;;;;11.25;3.10;;;23.80;39.30;;;;;;5014393;28;20020;-48
2022/04/06 07:49:58;;;;;;;7.90;2.83;;;23.80;39.40;;;;;;5024671;28;20037;-47
2022/04/06 07:52:27;;;;;;;13.57;3.72;;;23.80;39.50;;;;;;5020572;28;20079;-46
2022/04/06 07:54:53;;;;;;;7.38;2.78;;;23.80;39.70;;;;;;5019396;28;20032;-47
2022/04/06 07:57:26;;;;;;;7.82;3.08;;;23.80;39.80;;;;;;5023114;28;20619;-46
2022/04/06 07:59:53;;;;;;;10.70;3.35;;;23.80;40.30;;;;;;4990498;28;20065;-47
2022/04/06 08:02:19;;;;;;;10.77;3.00;;;23.80;39.80;;;;;;5004580;28;20351;-46
2022/04/06 08:04:45;;;;;;;15.57;4.03;;;23.80;39.90;;;;;;5004086;28;20053;-47
2022/04/06 08:07:11;;;;;;;11.05;3.63;;;23.80;39.80;;;;;;5010670;28;20049;-48
2022/04/06 08:09:37;;;;;;;8.57;2.67;;;23.80;39.80;;;;;;5015536;28;20033;-52
2022/04/06 08:12:03;;;;;;;8.80;3.45;;;23.80;39.60;;;;;;5017513;28;20040;-48
2022/04/06 08:14:29;;;;;;;10.63;3.92;;;23.80;39.80;;;;;;5009951;28;20101;-48
2022/04/06 08:16:55;;;;;;;9.88;3.20;;;23.80;39.70;;;;;;5002451;28;20357;-49
2022/04/06 08:19:22;;;;;;;6.95;2.88;;;23.70;39.80;;;;;;5007493;28;20043;-49
2022/04/06 08:21:49;;;;;;;7.10;2.83;;;23.80;39.70;;;;;;5017553;28;20029;-47
2022/04/06 08:24:18;;;;;;;11.68;3.33;;;23.80;39.70;;;;;;5010358;28;20089;-48
2022/04/06 08:26:48;;;;;;;11.35;3.90;;;23.70;39.80;;;;;;4994125;28;20282;-49
2022/04/06 08:29:14;;;;;;;8.15;3.38;;;23.70;39.30;;;;;;5012453;28;20029;-47
2022/04/06 08:31:43;;;;;;;8.10;3.20;;;23.70;39.50;;;;;;5021236;28;20029;-50
2022/04/06 08:34:11;;;;;;;11.15;3.55;;;23.70;39.50;;;;;;5002604;28;20044;-47
2022/04/06 08:36:49;;;;;;;7.03;2.75;;;23.70;39.60;;;;;;5012110;28;20044;-48
2022/04/06 08:39:22;;;;;;;13.27;4.30;;;23.70;39.90;;;;;;5009085;28;20051;-47
2022/04/06 08:41:49;;;;;;;12.00;4.03;;;23.70;40.20;;;;;;5015885;28;20044;-48
2022/04/06 08:44:16;;;;;;;12.98;4.45;;;23.70;40.50;;;;;;5016033;28;20746;-47
2022/04/06 08:46:45;;;;;;;10.07;3.80;;;23.70;40.50;;;;;;5015154;28;20074;-49
2022/04/06 08:49:12;;;;;;;10.50;4.05;;;23.70;40.20;;;;;;5014471;28;20029;-47
2022/04/06 08:51:40;;;;;;;12.38;3.45;;;23.70;40.00;;;;;;5013673;28;20052;-49
2022/04/06 08:54:06;;;;;;;8.75;3.13;;;23.80;40.10;;;;;;5016503;28;20033;-55
2022/04/06 08:56:32;;;;;;;7.60;3.33;;;23.70;40.20;;;;;;5014930;28;20056;-50
2022/04/06 08:59:00;;;;;;;14.32;4.40;;;23.70;40.30;;;;;;5015416;28;20141;-48
2022/04/06 09:01:27;;;;;;;11.20;3.03;;;23.70;40.00;;;;;;5018012;28;20029;-50
2022/04/06 09:03:53;;;;;;;6.80;2.88;;;23.70;40.30;;;;;;5017950;28;20039;-50
2022/04/06 09:06:18;;;;;;;10.45;3.28;;;23.70;40.40;;;;;;5019745;28;20033;-51
2022/04/06 09:08:46;;;;;;;10.93;3.55;;;23.70;40.30;;;;;;5014414;28;20030;-51
2022/04/06 09:11:14;;;;;;;11.63;4.22;;;23.70;40.00;;;;;;5021851;28;20433;-48
2022/04/06 09:13:42;;;;;;;13.55;5.72;;;23.70;40.50;;;;;;5018174;28;20100;-50
2022/04/06 09:16:13;;;;;;;18.13;5.45;;;23.70;42.20;;;;;;5020270;28;20030;-49
2022/04/06 09:18:42;;;;;;;14.13;4.80;;;23.70;43.00;;;;;;5020363;28;20521;-51
2022/04/06 09:21:09;;;;;;;12.88;4.00;;;23.70;43.00;;;;;;5019375;28;20064;-48
2022/04/06 09:23:35;;;;;;;12.30;4.55;;;23.70;43.20;;;;;;5018334;28;20037;-50
2022/04/06 09:26:06;;;;;;;13.30;4.03;;;23.80;42.40;;;;;;5018412;28;20037;-49
2022/04/06 09:28:32;;;;;;;11.40;3.75;;;23.80;41.50;;;;;;5019695;28;20033;-51
2022/04/06 09:30:58;;;;;;;10.68;3.92;;;23.80;40.90;;;;;;5013252;28;20010;-51
2022/04/06 09:33:28;;;;;;;13.75;4.05;;;23.80;40.70;;;;;;5021193;28;20033;-52
2022/04/06 09:35:58;;;;;;;10.65;3.35;;;23.80;41.00;;;;;;5021436;28;20525;-52
2022/04/06 09:38:27;;;;;;;9.10;4.22;;;23.80;41.00;;;;;;5020589;28;20080;-52
2022/04/06 09:41:06;;;;;;;11.20;3.97;;;23.80;41.20;;;;;;5015060;28;20034;-51
2022/04/06 09:43:34;;;;;;;8.93;3.90;;;23.70;41.50;;;;;;5011052;28;20063;-52
2022/04/06 09:49:19;;;;;;;12.48;4.32;;;23.80;41.50;;;;;;5017467;28;20074;-51
2022/04/06 09:51:52;;;;;;;8.82;3.65;;;23.80;41.70;;;;;;5002782;28;20040;-51
2022/04/06 09:54:19;;;;;;;13.35;3.95;;;23.70;41.60;;;;;;5005591;28;20033;-51
2022/04/06 09:56:45;;;;;;;9.82;4.10;;;23.80;42.40;;;;;;5011734;28;20022;-51
2022/04/06 09:59:13;;;;;;;15.27;5.18;;;23.70;41.90;;;;;;5006690;28;20029;-51
2022/04/06 10:01:46;;;;;;;10.70;3.83;;;23.70;42.20;;;;;;5011799;28;20125;-50
2022/04/06 10:04:13;;;;;;;416.10;376.15;;;23.70;42.10;;;;;;5013463;28;20053;-51
2022/04/06 10:06:41;;;;;;;458.95;413.42;;;23.70;43.10;;;;;;5015634;28;20040;-50
2022/04/06 10:09:10;;;;;;;610.75;551.88;;;23.70;42.70;;;;;;5014611;28;20248;-51
2022/04/06 10:11:37;;;;;;;655.83;590.45;;;23.70;42.80;;;;;;5016722;28;20057;-51
2022/04/06 10:14:05;;;;;;;635.17;570.38;;;23.70;42.20;;;;;;5014012;28;20026;-50
2022/04/06 10:16:32;;;;;;;617.45;554.30;;;23.70;42.20;;;;;;4992942;28;20099;-51
2022/04/06 10:18:59;;;;;;;501.77;447.85;;;23.80;42.10;;;;;;5000209;28;20040;-50
2022/04/06 10:21:54;;;;;;;431.35;383.25;;;23.80;42.60;;;;;;5015641;28;20113;-50
2022/04/06 10:24:24;;;;;;;392.92;331.35;;;23.70;41.80;;;;;;5016154;28;20036;-51
2022/04/06 10:27:11;;;;;;;379.10;304.70;;;23.70;41.40;;;;;;5019953;28;20029;-44
2022/04/06 10:30:06;;;;;;;294.70;239.35;;;23.70;50.20;;;;;;5017619;28;20029;-47
2022/04/06 10:32:42;;;;;;;257.80;195.73;;;23.60;42.50;;;;;;5017617;28;20128;-43
2022/04/06 10:35:34;;;;;;;237.15;174.85;;;23.60;41.80;;;;;;5016866;28;20061;-44
2022/04/06 10:37:59;;;;;;;193.50;138.40;;;23.60;42.60;;;;;;5014612;28;20064;-44
2022/04/06 10:40:57;;;;;;;196.55;140.65;;;23.60;41.90;;;;;;5016919;28;20122;-42
2022/04/06 10:43:40;;;;;;;200.90;141.15;;;23.60;43.40;;;;;;5013459;28;20041;-42
2022/04/06 10:46:17;;;;;;;182.43;125.30;;;23.60;43.50;;;;;;5018736;28;20028;-42
2022/04/06 10:49:15;;;;;;;146.80;102.43;;;23.60;43.20;;;;;;5022083;28;20041;-42
2022/04/06 10:51:46;;;;;;;125.88;85.47;;;23.50;42.80;;;;;;5022225;28;20104;-43
2022/04/06 10:54:14;;;;;;;116.35;79.22;;;23.50;42.90;;;;;;5024418;28;20029;-44
2022/04/06 10:56:50;;;;;;;117.68;81.03;;;23.60;42.70;;;;;;5023623;28;20021;-43
2022/04/06 10:59:29;;;;;;;225.35;191.02;;;23.50;43.00;;;;;;5024334;28;20101;-43
2022/04/06 11:02:13;;;;;;;327.08;289.70;;;23.50;42.70;;;;;;5024522;28;20543;-44
2022/04/06 11:04:40;;;;;;;705.30;629.97;;;23.50;42.80;;;;;;5025056;28;20122;-43
2022/04/06 11:07:08;;;;;;;769.20;675.75;;;23.50;42.70;;;;;;5021788;28;20029;-43
2022/04/06 11:12:29;;;;;;;826.47;683.83;;;23.50;43.10;;;;;;5023627;28;20025;-43
2022/04/06 11:14:58;;;;;;;839.63;672.33;;;23.50;42.60;;;;;;5023520;28;20025;-43
2022/04/06 11:17:30;;;;;;;830.00;630.88;;;23.60;43.00;;;;;;5023214;28;20461;-44
2022/04/06 11:19:56;;;;;;;805.03;594.03;;;23.50;42.50;;;;;;5024134;28;20569;-43
2022/04/06 11:22:22;;;;;;;814.47;588.70;;;23.50;42.30;;;;;;5024344;28;20033;-44
2022/04/06 11:24:48;;;;;;;811.92;569.00;;;23.50;42.40;;;;;;5023275;28;20666;-43
2022/04/06 11:27:32;;;;;;;761.53;529.88;;;23.60;42.30;;;;;;5024250;28;20501;-45
2022/04/06 11:30:05;;;;;;;717.80;486.60;;;23.50;42.30;;;;;;5024696;28;20044;-42
2022/04/06 11:32:31;;;;;;;;;;;23.50;42.20;;;;;;5024593;28;20020;-44
2022/04/06 11:35:00;;;;;;;618.97;410.13;;;23.50;42.10;;;;;;5021053;28;19909;-44
2022/04/06 11:37:26;;;;;;;625.25;406.02;;;23.50;42.00;;;;;;5021490;28;20021;-44
2022/04/06 11:39:57;;;;;;;643.97;404.70;;;23.50;42.20;;;;;;5022694;28;20339;-43
2022/04/06 11:42:23;;;;;;;574.05;353.88;;;23.50;42.20;;;;;;5023246;28;20564;-44
2022/04/06 11:44:49;;;;;;;572.42;355.30;;;23.50;42.50;;;;;;5024325;28;20104;-43
2022/04/06 11:47:14;;;;;;;522.97;318.85;;;23.50;42.50;;;;;;5023251;28;20126;-43
2022/04/06 11:49:40;;;;;;;473.10;279.48;;;23.50;42.40;;;;;;5019054;28;20375;-42
2022/04/06 11:52:07;;;;;;;412.67;232.02;;;23.50;41.90;;;;;;5021266;28;20481;-42
2022/04/06 11:54:33;;;;;;;388.45;210.32;;;23.50;41.90;;;;;;5021151;28;20087;-42
2022/04/06 11:56:58;;;;;;;337.33;179.52;;;23.50;41.70;;;;;;5017432;28;20017;-45
2022/04/06 11:59:26;;;;;;;322.65;168.98;;;23.50;41.30;;;;;;5020067;28;20037;-43
2022/04/06 12:01:52;;;;;;;273.73;145.38;;;23.50;41.20;;;;;;5019024;28;20087;-43
2022/04/06 12:04:21;;;;;;;252.98;135.82;;;23.50;40.90;;;;;;5024269;28;20065;-44
2022/04/06 12:06:47;;;;;;;250.48;126.70;;;23.50;40.90;;;;;;5024139;28;20651;-44
2022/04/06 12:09:13;;;;;;;237.38;124.45;;;23.50;40.80;;;;;;5022705;28;20546;-44
2022/04/06 12:11:39;;;;;;;219.10;113.60;;;23.50;40.70;;;;;;5024267;28;20018;-44
2022/04/06 12:14:10;;;;;;;219.32;111.85;;;23.50;40.60;;;;;;5023766;28;20045;-43
2022/04/06 12:16:40;;;;;;;208.25;109.50;;;23.50;40.50;;;;;;5014954;28;20446;-44
2022/04/06 12:19:13;;;;;;;194.43;100.75;;;23.40;40.50;;;;;;5004858;28;20037;-44
2022/04/06 12:21:47;;;;;;;194.18;98.82;;;23.40;40.40;;;;;;5012999;28;20030;-43
2022/04/06 12:24:13;;;;;;;177.88;91.38;;;23.40;40.40;;;;;;5024250;28;20037;-44
2022/04/06 12:26:45;;;;;;;170.13;91.07;;;23.40;40.40;;;;;;5024427;28;20033;-42
2022/04/06 12:29:15;;;;;;;164.83;85.10;;;23.40;40.10;;;;;;5004863;28;20580;-44
2022/04/06 12:31:42;;;;;;;168.52;85.07;;;23.40;40.30;;;;;;5021540;28;20728;-43
2022/04/06 12:34:28;;;;;;;149.23;74.70;;;23.40;40.40;;;;;;5023554;28;20718;-45
2022/04/06 12:36:54;;;;;;;128.98;66.72;;;23.40;40.00;;;;;;5023896;28;20638;-43
2022/04/06 12:39:19;;;;;;;111.80;58.50;;;23.40;40.10;;;;;;5024092;28;20041;-43
2022/04/06 12:42:06;;;;;;;96.88;49.75;;;23.40;39.70;;;;;;5015812;28;20530;-42
2022/04/06 12:44:33;;;;;;;103.22;52.05;;;23.40;39.50;;;;;;5015979;28;20029;-43
2022/04/06 12:47:00;;;;;;;105.63;53.10;;;23.40;39.80;;;;;;5023629;28;20064;-43
2022/04/06 12:49:31;;;;;;;92.47;48.50;;;23.40;41.10;;;;;;5023621;28;20038;-45
2022/04/06 12:52:08;;;;;;;84.53;43.45;;;23.40;39.90;;;;;;5023615;28;20026;-44